sensor_id;sensor_type;location;lat;lon;timestamp;temperature;humidity
17202;DHT22;8717;53.588;10.176;2023-01-19T00:00:12;-0.80;99.90
17202;DHT22;8717;53.588;10.176;2023-01-19T00:02:43;-0.70;99.90
17202;DHT22;8717;53.588;10.176;2023-01-19T00:05:12;-0.80;99.90
17202;DHT22;8717;53.588;10.176;2023-01-19T00:07:40;-0.70;99.90
17202;DHT22;8717;53.588;10.176;2023-01-19T00:10:08;-0.80;99.90
17202;DHT22;8717;53.588;10.176;2023-01-19T00:12:38;-0.80;99.90
17202;DHT22;8717;53.588;10.176;2023-01-19T00:15:05;-0.70;99.90
17202;DHT22;8717;53.588;10.176;2023-01-19T00:17:32;-0.70;99.90
17202;DHT22;8717;53.588;10.176;2023-01-19T00:20:00;-0.60;99.90
17202;DHT22;8717;53.588;10.176;2023-01-19T00:22:28;-0.60;99.90
17202;DHT22;8717;53.588;10.176;2023-01-19T00:24:55;-0.60;99.90
17202;DHT22;8717;53.588;10.176;2023-01-19T00:27:22;-0.50;99.90
17202;DHT22;8717;53.588;10.176;2023-01-19T00:29:49;-0.50;99.90
17202;DHT22;8717;53.588;10.176;2023-01-19T00:32:16;-0.50;99.90
17202;DHT22;8717;53.588;10.176;2023-01-19T00:34:45;-0.50;99.90
17202;DHT22;8717;53.588;10.176;2023-01-19T00:37:16;-0.50;99.90
17202;DHT22;8717;53.588;10.176;2023-01-19T00:39:43;-0.50;99.90
17202;DHT22;8717;53.588;10.176;2023-01-19T00:42:11;-0.40;99.90
17202;DHT22;8717;53.588;10.176;2023-01-19T00:44:55;-0.50;99.90
17202;DHT22;8717;53.588;10.176;2023-01-19T00:47:22;-0.40;99.90
17202;DHT22;8717;53.588;10.176;2023-01-19T00:49:49;-0.40;99.90
17202;DHT22;8717;53.588;10.176;2023-01-19T00:52:17;-0.40;99.90
17202;DHT22;8717;53.588;10.176;2023-01-19T00:54:45;-0.30;99.90
17202;DHT22;8717;53.588;10.176;2023-01-19T00:57:11;-0.30;99.90
17202;DHT22;8717;53.588;10.176;2023-01-19T00:59:38;-0.30;99.90
17202;DHT22;8717;53.588;10.176;2023-01-19T01:02:05;-0.20;99.90
17202;DHT22;8717;53.588;10.176;2023-01-19T01:04:32;-0.10;99.90
17202;DHT22;8717;53.588;10.176;2023-01-19T01:06:58;-0.10;99.90
17202;DHT22;8717;53.588;10.176;2023-01-19T01:09:27;-0.10;99.90
17202;DHT22;8717;53.588;10.176;2023-01-19T01:11:53;-0.10;99.90
17202;DHT22;8717;53.588;10.176;2023-01-19T01:14:22;0.00;99.90
17202;DHT22;8717;53.588;10.176;2023-01-19T01:16:49;0.00;99.90
17202;DHT22;8717;53.588;10.176;2023-01-19T01:19:16;0.00;99.90
17202;DHT22;8717;53.588;10.176;2023-01-19T01:21:46;0.10;99.90
17202;DHT22;8717;53.588;10.176;2023-01-19T01:24:13;0.10;99.90
17202;DHT22;8717;53.588;10.176;2023-01-19T01:26:42;0.10;99.90
17202;DHT22;8717;53.588;10.176;2023-01-19T01:29:09;0.10;99.90
17202;DHT22;8717;53.588;10.176;2023-01-19T01:31:36;0.10;99.90
17202;DHT22;8717;53.588;10.176;2023-01-19T01:34:02;0.20;99.90
17202;DHT22;8717;53.588;10.176;2023-01-19T01:36:29;0.10;99.90
17202;DHT22;8717;53.588;10.176;2023-01-19T01:38:57;0.20;99.90
17202;DHT22;8717;53.588;10.176;2023-01-19T01:41:24;0.20;99.90
17202;DHT22;8717;53.588;10.176;2023-01-19T01:43:54;0.20;99.90
17202;DHT22;8717;53.588;10.176;2023-01-19T01:46:24;0.20;99.90
17202;DHT22;8717;53.588;10.176;2023-01-19T01:48:56;0.20;99.90
17202;DHT22;8717;53.588;10.176;2023-01-19T01:51:29;0.30;99.90
17202;DHT22;8717;53.588;10.176;2023-01-19T01:54:03;0.30;99.90
17202;DHT22;8717;53.588;10.176;2023-01-19T01:56:34;0.30;99.90
17202;DHT22;8717;53.588;10.176;2023-01-19T01:59:05;0.30;99.90
17202;DHT22;8717;53.588;10.176;2023-01-19T02:01:33;0.40;99.90
17202;DHT22;8717;53.588;10.176;2023-01-19T02:04:18;0.40;99.90
17202;DHT22;8717;53.588;10.176;2023-01-19T02:06:46;0.40;99.90
17202;DHT22;8717;53.588;10.176;2023-01-19T02:09:33;0.40;99.90
17202;DHT22;8717;53.588;10.176;2023-01-19T02:12:19;0.40;99.90
17202;DHT22;8717;53.588;10.176;2023-01-19T02:15:13;0.40;99.90
17202;DHT22;8717;53.588;10.176;2023-01-19T02:17:41;0.30;99.90
17202;DHT22;8717;53.588;10.176;2023-01-19T02:20:09;0.40;99.90
17202;DHT22;8717;53.588;10.176;2023-01-19T02:22:46;0.40;99.90
17202;DHT22;8717;53.588;10.176;2023-01-19T02:25:15;0.40;99.90
17202;DHT22;8717;53.588;10.176;2023-01-19T02:27:43;0.40;99.90
17202;DHT22;8717;53.588;10.176;2023-01-19T02:30:11;0.40;99.90
17202;DHT22;8717;53.588;10.176;2023-01-19T02:32:38;0.40;99.90
17202;DHT22;8717;53.588;10.176;2023-01-19T02:35:05;0.50;99.90
17202;DHT22;8717;53.588;10.176;2023-01-19T02:37:35;0.50;99.90
17202;DHT22;8717;53.588;10.176;2023-01-19T02:40:07;0.50;99.90
17202;DHT22;8717;53.588;10.176;2023-01-19T02:42:39;0.50;99.90
17202;DHT22;8717;53.588;10.176;2023-01-19T02:45:10;0.50;99.90
17202;DHT22;8717;53.588;10.176;2023-01-19T02:47:42;0.50;99.90
17202;DHT22;8717;53.588;10.176;2023-01-19T02:50:32;0.50;99.90
17202;DHT22;8717;53.588;10.176;2023-01-19T02:53:09;0.50;99.90
17202;DHT22;8717;53.588;10.176;2023-01-19T02:55:39;0.50;99.90
17202;DHT22;8717;53.588;10.176;2023-01-19T02:58:17;0.60;99.90
17202;DHT22;8717;53.588;10.176;2023-01-19T03:00:52;0.50;99.90
17202;DHT22;8717;53.588;10.176;2023-01-19T03:03:27;0.60;99.90
17202;DHT22;8717;53.588;10.176;2023-01-19T03:06:02;0.60;99.90
17202;DHT22;8717;53.588;10.176;2023-01-19T03:08:41;0.60;99.90
17202;DHT22;8717;53.588;10.176;2023-01-19T03:11:10;0.70;99.90
17202;DHT22;8717;53.588;10.176;2023-01-19T03:13:43;0.70;99.90
17202;DHT22;8717;53.588;10.176;2023-01-19T03:16:15;0.70;99.90
17202;DHT22;8717;53.588;10.176;2023-01-19T03:18:45;0.70;99.90
17202;DHT22;8717;53.588;10.176;2023-01-19T03:21:14;0.80;99.90
17202;DHT22;8717;53.588;10.176;2023-01-19T03:23:45;0.80;99.90
17202;DHT22;8717;53.588;10.176;2023-01-19T03:26:16;0.80;99.90
17202;DHT22;8717;53.588;10.176;2023-01-19T03:28:45;0.80;99.90
17202;DHT22;8717;53.588;10.176;2023-01-19T03:31:15;0.80;99.90
17202;DHT22;8717;53.588;10.176;2023-01-19T03:33:47;0.90;99.90
17202;DHT22;8717;53.588;10.176;2023-01-19T03:36:18;0.90;99.90
17202;DHT22;8717;53.588;10.176;2023-01-19T03:38:47;0.90;99.90
17202;DHT22;8717;53.588;10.176;2023-01-19T03:41:17;0.90;99.90
17202;DHT22;8717;53.588;10.176;2023-01-19T03:43:47;0.90;99.90
17202;DHT22;8717;53.588;10.176;2023-01-19T03:46:18;1.00;99.90
17202;DHT22;8717;53.588;10.176;2023-01-19T03:48:46;1.00;99.90
17202;DHT22;8717;53.588;10.176;2023-01-19T03:51:16;1.00;99.90
17202;DHT22;8717;53.588;10.176;2023-01-19T03:53:44;1.00;99.90
17202;DHT22;8717;53.588;10.176;2023-01-19T03:56:16;1.00;99.90
17202;DHT22;8717;53.588;10.176;2023-01-19T03:58:44;1.00;99.90
17202;DHT22;8717;53.588;10.176;2023-01-19T04:01:12;1.00;99.90
17202;DHT22;8717;53.588;10.176;2023-01-19T04:03:39;1.00;99.90
17202;DHT22;8717;53.588;10.176;2023-01-19T04:06:06;1.00;99.90
17202;DHT22;8717;53.588;10.176;2023-01-19T04:08:33;1.00;99.90
17202;DHT22;8717;53.588;10.176;2023-01-19T04:11:00;1.00;99.90
17202;DHT22;8717;53.588;10.176;2023-01-19T04:13:27;1.00;99.90
17202;DHT22;8717;53.588;10.176;2023-01-19T04:15:54;1.10;99.90
17202;DHT22;8717;53.588;10.176;2023-01-19T04:18:25;1.10;99.90
17202;DHT22;8717;53.588;10.176;2023-01-19T04:20:52;1.10;99.90
17202;DHT22;8717;53.588;10.176;2023-01-19T04:23:19;1.10;99.90
17202;DHT22;8717;53.588;10.176;2023-01-19T04:25:46;1.10;99.90
17202;DHT22;8717;53.588;10.176;2023-01-19T04:28:12;1.10;99.90
17202;DHT22;8717;53.588;10.176;2023-01-19T04:30:40;1.20;99.90
17202;DHT22;8717;53.588;10.176;2023-01-19T04:33:07;1.20;99.90
17202;DHT22;8717;53.588;10.176;2023-01-19T04:35:35;1.20;99.90
17202;DHT22;8717;53.588;10.176;2023-01-19T04:38:02;1.20;99.90
17202;DHT22;8717;53.588;10.176;2023-01-19T04:40:29;1.20;99.90
17202;DHT22;8717;53.588;10.176;2023-01-19T04:42:56;1.20;99.90
17202;DHT22;8717;53.588;10.176;2023-01-19T04:45:23;1.20;99.90
17202;DHT22;8717;53.588;10.176;2023-01-19T04:47:50;1.10;99.90
17202;DHT22;8717;53.588;10.176;2023-01-19T04:50:17;1.10;99.90
17202;DHT22;8717;53.588;10.176;2023-01-19T04:52:45;1.20;99.90
17202;DHT22;8717;53.588;10.176;2023-01-19T04:55:14;1.30;99.90
17202;DHT22;8717;53.588;10.176;2023-01-19T04:57:40;1.20;99.90
17202;DHT22;8717;53.588;10.176;2023-01-19T05:00:09;1.20;99.90
17202;DHT22;8717;53.588;10.176;2023-01-19T05:02:36;1.20;99.90
17202;DHT22;8717;53.588;10.176;2023-01-19T05:05:03;1.20;99.90
17202;DHT22;8717;53.588;10.176;2023-01-19T05:07:30;1.20;99.90
17202;DHT22;8717;53.588;10.176;2023-01-19T05:09:58;1.20;99.90
17202;DHT22;8717;53.588;10.176;2023-01-19T05:12:25;1.20;99.90
17202;DHT22;8717;53.588;10.176;2023-01-19T05:14:52;1.20;99.90
17202;DHT22;8717;53.588;10.176;2023-01-19T05:17:19;1.20;99.90
17202;DHT22;8717;53.588;10.176;2023-01-19T05:19:46;1.20;99.90
17202;DHT22;8717;53.588;10.176;2023-01-19T05:22:13;1.20;99.90
17202;DHT22;8717;53.588;10.176;2023-01-19T05:24:41;1.20;99.90
17202;DHT22;8717;53.588;10.176;2023-01-19T05:27:09;1.20;99.90
17202;DHT22;8717;53.588;10.176;2023-01-19T05:29:36;1.20;99.90
17202;DHT22;8717;53.588;10.176;2023-01-19T05:32:03;1.20;99.90
17202;DHT22;8717;53.588;10.176;2023-01-19T05:34:30;1.20;99.90
17202;DHT22;8717;53.588;10.176;2023-01-19T05:36:57;1.20;99.90
17202;DHT22;8717;53.588;10.176;2023-01-19T05:39:26;1.20;99.90
17202;DHT22;8717;53.588;10.176;2023-01-19T05:41:54;1.30;99.90
17202;DHT22;8717;53.588;10.176;2023-01-19T05:44:22;1.30;99.90
17202;DHT22;8717;53.588;10.176;2023-01-19T05:46:49;1.30;99.90
17202;DHT22;8717;53.588;10.176;2023-01-19T05:49:16;1.30;99.90
17202;DHT22;8717;53.588;10.176;2023-01-19T05:51:42;1.20;99.90
17202;DHT22;8717;53.588;10.176;2023-01-19T05:54:13;1.20;99.90
17202;DHT22;8717;53.588;10.176;2023-01-19T05:56:40;1.20;99.90
17202;DHT22;8717;53.588;10.176;2023-01-19T05:59:07;1.30;99.90
17202;DHT22;8717;53.588;10.176;2023-01-19T06:01:36;1.30;99.90
17202;DHT22;8717;53.588;10.176;2023-01-19T06:04:04;1.30;99.90
17202;DHT22;8717;53.588;10.176;2023-01-19T06:06:31;1.30;99.90
17202;DHT22;8717;53.588;10.176;2023-01-19T06:08:58;1.20;99.90
17202;DHT22;8717;53.588;10.176;2023-01-19T06:11:25;1.20;99.90
17202;DHT22;8717;53.588;10.176;2023-01-19T06:13:54;1.20;99.90
17202;DHT22;8717;53.588;10.176;2023-01-19T06:16:20;1.20;99.90
17202;DHT22;8717;53.588;10.176;2023-01-19T06:18:48;1.20;99.90
17202;DHT22;8717;53.588;10.176;2023-01-19T06:21:15;1.10;99.90
17202;DHT22;8717;53.588;10.176;2023-01-19T06:23:42;1.10;99.90
17202;DHT22;8717;53.588;10.176;2023-01-19T06:26:09;1.10;99.90
17202;DHT22;8717;53.588;10.176;2023-01-19T06:28:36;1.10;99.90
17202;DHT22;8717;53.588;10.176;2023-01-19T06:31:02;1.10;99.90
17202;DHT22;8717;53.588;10.176;2023-01-19T06:33:29;1.00;99.90
17202;DHT22;8717;53.588;10.176;2023-01-19T06:36:00;1.10;99.90
17202;DHT22;8717;53.588;10.176;2023-01-19T06:38:27;1.10;99.90
17202;DHT22;8717;53.588;10.176;2023-01-19T06:40:55;1.10;99.90
17202;DHT22;8717;53.588;10.176;2023-01-19T06:43:23;1.10;99.90
17202;DHT22;8717;53.588;10.176;2023-01-19T06:45:51;1.00;99.90
17202;DHT22;8717;53.588;10.176;2023-01-19T06:48:18;1.00;99.90
17202;DHT22;8717;53.588;10.176;2023-01-19T06:50:45;1.00;99.90
17202;DHT22;8717;53.588;10.176;2023-01-19T06:53:14;1.00;99.90
17202;DHT22;8717;53.588;10.176;2023-01-19T06:55:42;1.00;99.90
17202;DHT22;8717;53.588;10.176;2023-01-19T06:58:09;1.00;99.90
17202;DHT22;8717;53.588;10.176;2023-01-19T07:00:36;0.90;99.90
17202;DHT22;8717;53.588;10.176;2023-01-19T07:03:05;0.90;99.90
17202;DHT22;8717;53.588;10.176;2023-01-19T07:05:33;1.00;99.90
17202;DHT22;8717;53.588;10.176;2023-01-19T07:07:59;1.00;99.90
17202;DHT22;8717;53.588;10.176;2023-01-19T07:10:27;1.00;99.90
17202;DHT22;8717;53.588;10.176;2023-01-19T07:12:56;1.00;99.90
17202;DHT22;8717;53.588;10.176;2023-01-19T07:15:23;1.00;99.90
17202;DHT22;8717;53.588;10.176;2023-01-19T07:17:49;1.00;99.90
17202;DHT22;8717;53.588;10.176;2023-01-19T07:20:16;1.00;99.90
17202;DHT22;8717;53.588;10.176;2023-01-19T07:22:44;1.10;99.90
17202;DHT22;8717;53.588;10.176;2023-01-19T07:25:11;1.10;99.90
17202;DHT22;8717;53.588;10.176;2023-01-19T07:27:43;1.10;99.90
17202;DHT22;8717;53.588;10.176;2023-01-19T07:30:13;1.10;99.90
17202;DHT22;8717;53.588;10.176;2023-01-19T07:32:41;1.10;99.90
17202;DHT22;8717;53.588;10.176;2023-01-19T07:35:12;1.10;99.90
17202;DHT22;8717;53.588;10.176;2023-01-19T07:37:40;1.10;99.90
17202;DHT22;8717;53.588;10.176;2023-01-19T07:40:07;1.10;99.90
17202;DHT22;8717;53.588;10.176;2023-01-19T07:42:34;1.00;99.90
17202;DHT22;8717;53.588;10.176;2023-01-19T07:45:04;1.00;99.90
17202;DHT22;8717;53.588;10.176;2023-01-19T07:47:31;1.00;99.90
17202;DHT22;8717;53.588;10.176;2023-01-19T07:49:58;1.00;99.90
17202;DHT22;8717;53.588;10.176;2023-01-19T07:52:24;1.10;99.90
17202;DHT22;8717;53.588;10.176;2023-01-19T07:54:52;1.10;99.90
17202;DHT22;8717;53.588;10.176;2023-01-19T07:57:19;1.10;99.90
17202;DHT22;8717;53.588;10.176;2023-01-19T07:59:46;1.10;99.90
17202;DHT22;8717;53.588;10.176;2023-01-19T08:02:14;1.10;99.90
17202;DHT22;8717;53.588;10.176;2023-01-19T08:04:46;1.10;99.90
17202;DHT22;8717;53.588;10.176;2023-01-19T08:07:13;1.10;99.90
17202;DHT22;8717;53.588;10.176;2023-01-19T08:09:42;1.10;99.90
17202;DHT22;8717;53.588;10.176;2023-01-19T08:12:09;1.10;99.90
17202;DHT22;8717;53.588;10.176;2023-01-19T08:14:39;1.10;99.90
17202;DHT22;8717;53.588;10.176;2023-01-19T08:17:05;1.10;99.90
17202;DHT22;8717;53.588;10.176;2023-01-19T08:19:35;1.10;99.90
17202;DHT22;8717;53.588;10.176;2023-01-19T08:22:03;1.10;99.90
17202;DHT22;8717;53.588;10.176;2023-01-19T08:24:30;1.10;99.90
17202;DHT22;8717;53.588;10.176;2023-01-19T08:26:58;1.10;99.90
17202;DHT22;8717;53.588;10.176;2023-01-19T08:29:28;1.10;99.90
17202;DHT22;8717;53.588;10.176;2023-01-19T08:31:58;1.10;99.90
17202;DHT22;8717;53.588;10.176;2023-01-19T08:34:27;1.10;99.90
17202;DHT22;8717;53.588;10.176;2023-01-19T08:36:56;1.10;99.90
17202;DHT22;8717;53.588;10.176;2023-01-19T08:39:26;1.10;99.90
17202;DHT22;8717;53.588;10.176;2023-01-19T08:41:53;1.10;99.90
17202;DHT22;8717;53.588;10.176;2023-01-19T08:44:20;1.20;99.90
17202;DHT22;8717;53.588;10.176;2023-01-19T08:46:47;1.20;99.90
17202;DHT22;8717;53.588;10.176;2023-01-19T08:49:13;1.20;99.90
17202;DHT22;8717;53.588;10.176;2023-01-19T08:51:41;1.20;99.90
17202;DHT22;8717;53.588;10.176;2023-01-19T08:54:11;1.30;99.90
17202;DHT22;8717;53.588;10.176;2023-01-19T08:56:38;1.30;99.90
17202;DHT22;8717;53.588;10.176;2023-01-19T08:59:05;1.30;99.90
17202;DHT22;8717;53.588;10.176;2023-01-19T09:01:31;1.30;99.90
17202;DHT22;8717;53.588;10.176;2023-01-19T09:03:58;1.30;99.90
17202;DHT22;8717;53.588;10.176;2023-01-19T09:06:25;1.30;99.90
17202;DHT22;8717;53.588;10.176;2023-01-19T09:08:52;1.40;99.90
17202;DHT22;8717;53.588;10.176;2023-01-19T09:11:20;1.40;99.90
17202;DHT22;8717;53.588;10.176;2023-01-19T09:13:47;1.50;99.90
17202;DHT22;8717;53.588;10.176;2023-01-19T09:16:14;1.50;99.90
17202;DHT22;8717;53.588;10.176;2023-01-19T09:18:40;1.50;99.90
17202;DHT22;8717;53.588;10.176;2023-01-19T09:21:09;1.60;99.90
17202;DHT22;8717;53.588;10.176;2023-01-19T09:23:36;1.60;99.90
17202;DHT22;8717;53.588;10.176;2023-01-19T09:26:04;1.70;99.90
17202;DHT22;8717;53.588;10.176;2023-01-19T09:28:32;1.70;99.90
17202;DHT22;8717;53.588;10.176;2023-01-19T09:31:03;1.80;99.90
17202;DHT22;8717;53.588;10.176;2023-01-19T09:33:30;1.80;99.90
17202;DHT22;8717;53.588;10.176;2023-01-19T09:35:57;1.80;99.90
17202;DHT22;8717;53.588;10.176;2023-01-19T09:38:24;1.80;99.90
17202;DHT22;8717;53.588;10.176;2023-01-19T09:40:52;1.90;99.90
17202;DHT22;8717;53.588;10.176;2023-01-19T09:43:34;1.90;99.90
17202;DHT22;8717;53.588;10.176;2023-01-19T09:46:08;1.80;99.90
17202;DHT22;8717;53.588;10.176;2023-01-19T09:48:42;1.80;99.90
17202;DHT22;8717;53.588;10.176;2023-01-19T09:51:13;1.80;99.90
17202;DHT22;8717;53.588;10.176;2023-01-19T09:53:54;1.80;99.90
17202;DHT22;8717;53.588;10.176;2023-01-19T09:56:22;1.70;99.90
17202;DHT22;8717;53.588;10.176;2023-01-19T09:58:51;1.70;99.90
17202;DHT22;8717;53.588;10.176;2023-01-19T10:01:29;1.70;99.90
17202;DHT22;8717;53.588;10.176;2023-01-19T10:04:12;1.60;99.90
17202;DHT22;8717;53.588;10.176;2023-01-19T10:06:42;1.50;99.90
17202;DHT22;8717;53.588;10.176;2023-01-19T10:09:15;1.60;99.90
17202;DHT22;8717;53.588;10.176;2023-01-19T10:11:46;1.60;99.90
17202;DHT22;8717;53.588;10.176;2023-01-19T10:14:19;1.60;99.90
17202;DHT22;8717;53.588;10.176;2023-01-19T10:16:56;1.60;99.90
17202;DHT22;8717;53.588;10.176;2023-01-19T10:19:29;1.60;99.90
17202;DHT22;8717;53.588;10.176;2023-01-19T10:22:00;1.60;99.90
17202;DHT22;8717;53.588;10.176;2023-01-19T10:24:34;1.60;99.90
17202;DHT22;8717;53.588;10.176;2023-01-19T10:27:09;1.60;99.90
17202;DHT22;8717;53.588;10.176;2023-01-19T10:29:40;1.60;99.90
17202;DHT22;8717;53.588;10.176;2023-01-19T10:32:08;1.60;99.90
17202;DHT22;8717;53.588;10.176;2023-01-19T10:34:37;1.60;99.90
17202;DHT22;8717;53.588;10.176;2023-01-19T10:37:12;1.60;99.90
17202;DHT22;8717;53.588;10.176;2023-01-19T10:39:42;1.60;99.90
17202;DHT22;8717;53.588;10.176;2023-01-19T10:42:11;1.60;99.90
17202;DHT22;8717;53.588;10.176;2023-01-19T10:44:40;1.60;99.90
17202;DHT22;8717;53.588;10.176;2023-01-19T10:47:14;1.70;99.90
17202;DHT22;8717;53.588;10.176;2023-01-19T10:49:42;1.70;99.90
17202;DHT22;8717;53.588;10.176;2023-01-19T10:52:21;1.80;99.90
17202;DHT22;8717;53.588;10.176;2023-01-19T10:54:52;1.80;99.90
17202;DHT22;8717;53.588;10.176;2023-01-19T10:57:25;1.90;99.90
17202;DHT22;8717;53.588;10.176;2023-01-19T10:59:54;1.90;99.90
17202;DHT22;8717;53.588;10.176;2023-01-19T11:02:26;1.90;99.90
17202;DHT22;8717;53.588;10.176;2023-01-19T11:05:01;1.90;99.90
17202;DHT22;8717;53.588;10.176;2023-01-19T11:07:41;2.00;99.90
17202;DHT22;8717;53.588;10.176;2023-01-19T11:10:19;2.00;99.90
17202;DHT22;8717;53.588;10.176;2023-01-19T11:12:57;2.00;99.90
17202;DHT22;8717;53.588;10.176;2023-01-19T11:15:30;2.10;99.90
17202;DHT22;8717;53.588;10.176;2023-01-19T11:17:58;2.10;99.90
17202;DHT22;8717;53.588;10.176;2023-01-19T11:20:27;2.10;99.90
17202;DHT22;8717;53.588;10.176;2023-01-19T11:23:06;2.20;99.90
17202;DHT22;8717;53.588;10.176;2023-01-19T11:25:35;2.10;99.90
17202;DHT22;8717;53.588;10.176;2023-01-19T11:28:02;2.20;99.90
17202;DHT22;8717;53.588;10.176;2023-01-19T11:30:30;2.30;99.90
17202;DHT22;8717;53.588;10.176;2023-01-19T11:32:57;2.30;99.90
17202;DHT22;8717;53.588;10.176;2023-01-19T11:35:32;2.30;99.90
17202;DHT22;8717;53.588;10.176;2023-01-19T11:38:20;2.30;99.90
17202;DHT22;8717;53.588;10.176;2023-01-19T11:40:52;2.30;99.90
17202;DHT22;8717;53.588;10.176;2023-01-19T11:43:21;2.40;99.90
17202;DHT22;8717;53.588;10.176;2023-01-19T11:45:54;2.40;99.90
17202;DHT22;8717;53.588;10.176;2023-01-19T11:48:27;2.40;99.90
17202;DHT22;8717;53.588;10.176;2023-01-19T11:50:56;2.40;99.90
17202;DHT22;8717;53.588;10.176;2023-01-19T11:53:31;2.50;99.90
17202;DHT22;8717;53.588;10.176;2023-01-19T11:56:01;2.50;99.90
17202;DHT22;8717;53.588;10.176;2023-01-19T11:58:32;2.50;99.90
17202;DHT22;8717;53.588;10.176;2023-01-19T12:01:04;2.60;99.90
17202;DHT22;8717;53.588;10.176;2023-01-19T12:03:36;2.50;99.90
17202;DHT22;8717;53.588;10.176;2023-01-19T12:06:13;2.60;99.90
17202;DHT22;8717;53.588;10.176;2023-01-19T12:08:42;2.60;99.90
17202;DHT22;8717;53.588;10.176;2023-01-19T12:11:15;2.70;99.90
17202;DHT22;8717;53.588;10.176;2023-01-19T12:13:46;2.70;99.90
17202;DHT22;8717;53.588;10.176;2023-01-19T12:16:20;2.70;99.90
17202;DHT22;8717;53.588;10.176;2023-01-19T12:18:48;2.80;99.90
17202;DHT22;8717;53.588;10.176;2023-01-19T12:21:18;2.80;99.90
17202;DHT22;8717;53.588;10.176;2023-01-19T12:23:55;2.80;99.90
17202;DHT22;8717;53.588;10.176;2023-01-19T12:26:33;2.80;99.90
17202;DHT22;8717;53.588;10.176;2023-01-19T12:29:09;2.80;99.90
17202;DHT22;8717;53.588;10.176;2023-01-19T12:31:39;2.80;99.90
17202;DHT22;8717;53.588;10.176;2023-01-19T12:34:26;2.80;99.90
17202;DHT22;8717;53.588;10.176;2023-01-19T12:37:02;2.90;99.90
17202;DHT22;8717;53.588;10.176;2023-01-19T12:39:32;2.90;99.90
17202;DHT22;8717;53.588;10.176;2023-01-19T12:42:08;3.00;99.90
17202;DHT22;8717;53.588;10.176;2023-01-19T12:44:36;3.00;99.90
17202;DHT22;8717;53.588;10.176;2023-01-19T12:47:20;3.00;99.90
17202;DHT22;8717;53.588;10.176;2023-01-19T12:49:50;3.10;99.90
17202;DHT22;8717;53.588;10.176;2023-01-19T12:52:25;3.20;99.90
17202;DHT22;8717;53.588;10.176;2023-01-19T12:55:00;3.20;99.90
17202;DHT22;8717;53.588;10.176;2023-01-19T12:57:31;3.20;99.90
17202;DHT22;8717;53.588;10.176;2023-01-19T13:00:02;3.30;99.90
17202;DHT22;8717;53.588;10.176;2023-01-19T13:02:42;3.30;99.90
17202;DHT22;8717;53.588;10.176;2023-01-19T13:05:15;3.30;99.90
17202;DHT22;8717;53.588;10.176;2023-01-19T13:08:17;3.40;99.90
17202;DHT22;8717;53.588;10.176;2023-01-19T13:11:18;3.40;99.90
17202;DHT22;8717;53.588;10.176;2023-01-19T13:17:17;3.40;99.90
17202;DHT22;8717;53.588;10.176;2023-01-19T13:19:51;3.40;99.90
17202;DHT22;8717;53.588;10.176;2023-01-19T13:22:47;3.30;99.90
17202;DHT22;8717;53.588;10.176;2023-01-19T13:25:26;3.30;99.90
17202;DHT22;8717;53.588;10.176;2023-01-19T13:27:54;3.30;99.90
17202;DHT22;8717;53.588;10.176;2023-01-19T13:30:26;3.30;99.90
17202;DHT22;8717;53.588;10.176;2023-01-19T13:32:59;3.20;99.90
17202;DHT22;8717;53.588;10.176;2023-01-19T13:35:29;3.30;99.90
17202;DHT22;8717;53.588;10.176;2023-01-19T13:37:57;3.20;99.90
17202;DHT22;8717;53.588;10.176;2023-01-19T13:40:30;3.20;99.90
17202;DHT22;8717;53.588;10.176;2023-01-19T13:42:59;3.20;99.90
17202;DHT22;8717;53.588;10.176;2023-01-19T13:45:29;3.20;99.90
17202;DHT22;8717;53.588;10.176;2023-01-19T13:47:59;3.20;99.90
17202;DHT22;8717;53.588;10.176;2023-01-19T13:50:33;3.20;99.90
17202;DHT22;8717;53.588;10.176;2023-01-19T13:53:01;3.30;99.90
17202;DHT22;8717;53.588;10.176;2023-01-19T13:55:30;3.30;99.90
17202;DHT22;8717;53.588;10.176;2023-01-19T13:57:57;3.30;99.90
17202;DHT22;8717;53.588;10.176;2023-01-19T14:00:25;3.30;99.90
17202;DHT22;8717;53.588;10.176;2023-01-19T14:02:56;3.30;99.90
17202;DHT22;8717;53.588;10.176;2023-01-19T14:05:26;3.30;99.90
17202;DHT22;8717;53.588;10.176;2023-01-19T14:08:09;3.30;99.90
17202;DHT22;8717;53.588;10.176;2023-01-19T14:10:39;3.30;99.90
17202;DHT22;8717;53.588;10.176;2023-01-19T14:13:14;3.30;99.90
17202;DHT22;8717;53.588;10.176;2023-01-19T14:15:44;3.40;99.90
17202;DHT22;8717;53.588;10.176;2023-01-19T14:18:23;3.40;99.90
17202;DHT22;8717;53.588;10.176;2023-01-19T14:20:55;3.30;99.90
17202;DHT22;8717;53.588;10.176;2023-01-19T14:23:48;3.40;99.90
17202;DHT22;8717;53.588;10.176;2023-01-19T14:26:44;3.30;99.90
17202;DHT22;8717;53.588;10.176;2023-01-19T14:29:25;3.30;99.90
17202;DHT22;8717;53.588;10.176;2023-01-19T14:32:11;3.30;99.90
17202;DHT22;8717;53.588;10.176;2023-01-19T14:37:30;3.30;99.90
17202;DHT22;8717;53.588;10.176;2023-01-19T14:40:12;3.40;99.90
17202;DHT22;8717;53.588;10.176;2023-01-19T14:42:52;3.40;99.90
17202;DHT22;8717;53.588;10.176;2023-01-19T14:45:21;3.40;99.90
17202;DHT22;8717;53.588;10.176;2023-01-19T14:47:54;3.40;99.90
17202;DHT22;8717;53.588;10.176;2023-01-19T14:50:26;3.30;99.90
17202;DHT22;8717;53.588;10.176;2023-01-19T14:52:58;3.40;99.90
17202;DHT22;8717;53.588;10.176;2023-01-19T14:55:32;3.40;99.90
17202;DHT22;8717;53.588;10.176;2023-01-19T14:58:00;3.40;99.90
17202;DHT22;8717;53.588;10.176;2023-01-19T15:00:27;3.40;99.90
17202;DHT22;8717;53.588;10.176;2023-01-19T15:02:54;3.40;99.90
17202;DHT22;8717;53.588;10.176;2023-01-19T15:05:23;3.40;99.90
17202;DHT22;8717;53.588;10.176;2023-01-19T15:07:49;3.40;99.90
17202;DHT22;8717;53.588;10.176;2023-01-19T15:10:20;3.40;99.90
17202;DHT22;8717;53.588;10.176;2023-01-19T15:12:49;3.40;99.90
17202;DHT22;8717;53.588;10.176;2023-01-19T15:15:18;3.50;99.90
17202;DHT22;8717;53.588;10.176;2023-01-19T15:17:47;3.40;99.90
17202;DHT22;8717;53.588;10.176;2023-01-19T15:20:20;3.40;99.90
17202;DHT22;8717;53.588;10.176;2023-01-19T15:22:48;3.40;99.90
17202;DHT22;8717;53.588;10.176;2023-01-19T15:25:18;3.30;99.90
17202;DHT22;8717;53.588;10.176;2023-01-19T15:27:46;3.30;99.90
17202;DHT22;8717;53.588;10.176;2023-01-19T15:30:20;3.20;99.90
17202;DHT22;8717;53.588;10.176;2023-01-19T15:32:48;3.20;99.90
17202;DHT22;8717;53.588;10.176;2023-01-19T15:35:19;3.10;99.90
17202;DHT22;8717;53.588;10.176;2023-01-19T15:37:47;3.00;99.90
17202;DHT22;8717;53.588;10.176;2023-01-19T15:40:14;3.00;99.90
17202;DHT22;8717;53.588;10.176;2023-01-19T15:42:41;2.90;99.90
17202;DHT22;8717;53.588;10.176;2023-01-19T15:45:31;2.90;99.90
17202;DHT22;8717;53.588;10.176;2023-01-19T15:47:58;2.80;99.90
17202;DHT22;8717;53.588;10.176;2023-01-19T15:50:25;2.70;99.90
17202;DHT22;8717;53.588;10.176;2023-01-19T15:52:52;2.70;99.90
17202;DHT22;8717;53.588;10.176;2023-01-19T15:55:19;2.60;99.90
17202;DHT22;8717;53.588;10.176;2023-01-19T15:57:46;2.50;99.90
17202;DHT22;8717;53.588;10.176;2023-01-19T16:00:14;2.50;99.90
17202;DHT22;8717;53.588;10.176;2023-01-19T16:02:44;2.40;99.90
17202;DHT22;8717;53.588;10.176;2023-01-19T16:05:11;2.30;99.90
17202;DHT22;8717;53.588;10.176;2023-01-19T16:07:37;2.20;99.90
17202;DHT22;8717;53.588;10.176;2023-01-19T16:10:05;2.30;99.90